Time;durP1;ratioP1;P1;durP2;ratioP2;P2;SDS_P1;SDS_P2;PMS_P1;PMS_P2;Temp;Humidity;BMP_temperature;BMP_pressure;BME280_temperature;BME280_humidity;BME280_pressure;Samples;Min_cycle;Max_cycle;Signal;HPM_P1;HPM_P2
2023/02/09 00:01:01;;;;;;;1.40;1.20;;;-3.40;91.40;;;;;;5047732;28;20231;-67
2023/02/09 00:03:28;;;;;;;1.42;1.42;;;-3.40;91.30;;;;;;5047000;28;20597;-67
2023/02/09 00:05:55;;;;;;;1.83;1.73;;;-3.40;91.40;;;;;;5047603;28;20229;-67
2023/02/09 00:08:22;;;;;;;2.00;1.73;;;-3.40;91.50;;;;;;5040799;28;20201;-67
2023/02/09 00:10:48;;;;;;;2.30;1.80;;;-3.50;91.30;;;;;;5036839;28;20216;-67
2023/02/09 00:13:21;;;;;;;2.88;2.67;;;-3.50;91.50;;;;;;5046951;28;20203;-66
2023/02/09 00:15:49;;;;;;;1.45;1.35;;;-3.50;91.60;;;;;;5047248;28;20223;-67
2023/02/09 00:18:16;;;;;;;2.45;1.83;;;-3.60;91.50;;;;;;5035758;28;20237;-67
2023/02/09 00:20:43;;;;;;;2.97;2.83;;;-3.60;91.60;;;;;;5027631;28;20235;-68
2023/02/09 00:23:10;;;;;;;7.10;2.05;;;-3.70;91.90;;;;;;5028359;28;20198;-67
2023/02/09 00:25:38;;;;;;;5.18;2.67;;;-3.70;91.90;;;;;;5026745;28;20224;-67
2023/02/09 00:28:05;;;;;;;2.47;2.28;;;-3.70;92.00;;;;;;5029244;28;20198;-67
2023/02/09 00:30:33;;;;;;;2.10;1.98;;;-3.70;92.20;;;;;;5027297;28;20237;-67
2023/02/09 00:33:00;;;;;;;8.32;2.40;;;-3.80;92.20;;;;;;5034555;28;20203;-67
2023/02/09 00:35:27;;;;;;;1.70;0.70;;;-3.70;92.10;;;;;;5037114;28;20902;-66
2023/02/09 00:37:53;;;;;;;2.20;2.00;;;-3.70;92.10;;;;;;5040421;28;20235;-67
2023/02/09 00:40:20;;;;;;;1.15;1.15;;;-3.80;92.30;;;;;;5056637;28;20203;-66
2023/02/09 00:42:47;;;;;;;1.73;1.63;;;-3.80;92.40;;;;;;5043358;28;20623;-67
2023/02/09 00:45:14;;;;;;;1.83;1.73;;;-3.70;92.10;;;;;;5047056;28;20207;-67
2023/02/09 00:47:42;;;;;;;3.00;2.75;;;-3.70;91.60;;;;;;5044651;28;20204;-67
2023/02/09 00:50:09;;;;;;;1.75;1.75;;;-3.70;91.30;;;;;;5026109;28;20577;-66
2023/02/09 00:52:36;;;;;;;2.13;1.92;;;-3.70;91.90;;;;;;5026721;28;20193;-68
2023/02/09 00:55:03;;;;;;;1.50;1.50;;;-3.80;91.60;;;;;;5027230;28;20202;-67
2023/02/09 00:57:31;;;;;;;1.60;1.50;;;-3.80;91.40;;;;;;5031149;28;20231;-66
2023/02/09 00:59:58;;;;;;;1.98;1.83;;;-3.70;91.60;;;;;;5034128;28;20204;-68
2023/02/09 01:02:25;;;;;;;2.10;1.90;;;-3.70;92.00;;;;;;5026911;28;20217;-67
2023/02/09 01:04:53;;;;;;;2.45;2.33;;;-3.70;92.10;;;;;;5027047;28;20207;-66
2023/02/09 01:07:20;;;;;;;2.35;2.10;;;-3.70;92.20;;;;;;5027753;28;20306;-66
2023/02/09 01:09:46;;;;;;;1.42;1.42;;;-3.80;92.20;;;;;;5025706;28;20202;-66
2023/02/09 01:12:13;;;;;;;2.55;1.15;;;-3.80;92.40;;;;;;5037689;28;20582;-67
2023/02/09 01:14:40;;;;;;;3.90;3.63;;;-3.80;92.20;;;;;;5029702;28;20201;-67
2023/02/09 01:17:07;;;;;;;0.70;0.70;;;-3.90;92.20;;;;;;5040146;28;20258;-67
2023/02/09 01:19:34;;;;;;;1.88;1.77;;;-3.80;92.40;;;;;;5044736;28;20214;-67
2023/02/09 01:22:03;;;;;;;1.75;1.65;;;-3.90;92.00;;;;;;5046942;28;20869;-66
2023/02/09 01:24:29;;;;;;;1.95;1.85;;;-3.90;91.70;;;;;;5027339;28;20883;-67
2023/02/09 01:26:56;;;;;;;1.02;1.02;;;-4.00;91.80;;;;;;5027477;28;20224;-66
2023/02/09 01:29:23;;;;;;;2.10;1.45;;;-3.90;91.80;;;;;;5026046;28;20571;-67
2023/02/09 01:31:50;;;;;;;2.15;1.20;;;-3.90;91.60;;;;;;5027899;28;20892;-66
2023/02/09 01:34:18;;;;;;;1.50;1.50;;;-3.80;91.60;;;;;;5026665;28;20735;-67
2023/02/09 01:36:45;;;;;;;2.50;2.30;;;-3.80;91.50;;;;;;5026918;28;20596;-66
2023/02/09 01:39:14;;;;;;;3.67;3.38;;;-3.80;91.50;;;;;;5042140;28;20215;-66
2023/02/09 01:41:41;;;;;;;1.77;1.10;;;-3.80;91.60;;;;;;5040884;28;20319;-67
2023/02/09 01:44:46;;;;;;;1.05;1.05;;;-3.70;91.70;;;;;;5032420;28;20200;-66
2023/02/09 01:47:14;;;;;;;1.80;1.80;;;-3.80;91.60;;;;;;5046274;28;20228;-68
2023/02/09 01:49:42;;;;;;;1.25;1.13;;;-3.70;91.60;;;;;;5026431;28;20201;-66
2023/02/09 01:52:12;;;;;;;0.77;0.77;;;-3.70;91.60;;;;;;5027244;28;20235;-67
2023/02/09 01:54:43;;;;;;;2.25;1.75;;;-3.60;91.70;;;;;;5027441;28;20561;-66
2023/02/09 01:57:14;;;;;;;2.55;2.45;;;-3.60;91.70;;;;;;5027082;28;20224;-66
2023/02/09 01:59:44;;;;;;;1.33;1.00;;;-3.60;91.50;;;;;;5045617;28;20663;-67
2023/02/09 02:02:12;;;;;;;2.42;2.22;;;-3.50;91.40;;;;;;5045638;28;20235;-67
2023/02/09 02:04:40;;;;;;;1.75;1.58;;;-3.50;91.30;;;;;;5045347;28;20570;-67
2023/02/09 02:07:12;;;;;;;1.15;1.15;;;-3.60;91.30;;;;;;5045872;28;20230;-66
2023/02/09 02:09:41;;;;;;;2.45;2.35;;;-3.50;91.30;;;;;;5026151;28;20204;-67
2023/02/09 02:12:09;;;;;;;1.50;1.50;;;-3.60;91.30;;;;;;5032853;28;20225;-66
2023/02/09 02:14:38;;;;;;;2.63;2.42;;;-3.60;91.50;;;;;;5046408;28;20198;-66
2023/02/09 02:17:16;;;;;;;1.85;1.67;;;-3.70;91.80;;;;;;5028585;28;20320;-66
2023/02/09 02:20:24;;;;;;;2.38;2.13;;;-4.00;91.90;;;;;;5044853;28;20215;-67
2023/02/09 02:23:14;;;;;;;1.42;1.23;;;-4.30;92.50;;;;;;5020020;28;20211;-66
2023/02/09 02:26:15;;;;;;;2.20;2.00;;;-4.30;93.20;;;;;;5026662;28;20252;-67
2023/02/09 02:29:01;;;;;;;5.90;5.60;;;-4.30;93.30;;;;;;5034317;28;20314;-66
2023/02/09 02:32:12;;;;;;;1.35;0.88;;;-4.30;93.60;;;;;;5046275;28;20228;-67
2023/02/09 02:34:50;;;;;;;1.25;1.15;;;-4.20;93.60;;;;;;5046567;28;20227;-66
2023/02/09 02:37:39;;;;;;;1.63;1.63;;;-4.10;93.20;;;;;;5050421;28;20231;-67
2023/02/09 02:40:20;;;;;;;2.35;2.15;;;-3.90;92.80;;;;;;5047831;28;20207;-66
2023/02/09 02:42:54;;;;;;;8.23;2.88;;;-3.90;92.40;;;;;;5055444;28;20663;-67
2023/02/09 02:45:33;;;;;;;47.60;3.30;;;-3.90;92.30;;;;;;5043795;28;20209;-67
2023/02/09 02:48:10;;;;;;;4.10;3.00;;;-3.80;92.40;;;;;;5030818;28;20549;-68
2023/02/09 02:50:42;;;;;;;4.97;1.25;;;-3.90;92.30;;;;;;5027371;28;20587;-67
2023/02/09 02:53:12;;;;;;;2.38;2.20;;;-3.90;92.40;;;;;;5026884;28;20366;-66
2023/02/09 02:55:42;;;;;;;0.93;0.93;;;-4.00;92.20;;;;;;5026243;28;20240;-67
2023/02/09 02:58:12;;;;;;;2.92;1.85;;;-4.10;92.50;;;;;;5025539;28;20243;-68
2023/02/09 03:00:44;;;;;;;3.78;1.60;;;-4.20;92.60;;;;;;5037846;28;20313;-66
2023/02/09 03:03:15;;;;;;;1.75;1.75;;;-4.10;92.80;;;;;;5039199;28;20197;-67
2023/02/09 03:05:45;;;;;;;6.45;3.33;;;-4.20;92.70;;;;;;5029907;28;20220;-67
2023/02/09 03:08:12;;;;;;;1.83;1.10;;;-4.20;92.90;;;;;;5028860;28;20255;-67
2023/02/09 03:10:41;;;;;;;2.45;1.35;;;-4.30;92.90;;;;;;5029897;28;20299;-67
2023/02/09 03:13:37;;;;;;;0.70;0.70;;;-4.30;93.00;;;;;;5029966;28;20843;-66
2023/02/09 03:16:20;;;;;;;1.65;1.55;;;-4.30;93.00;;;;;;5026390;28;20260;-67
2023/02/09 03:19:25;;;;;;;2.50;2.38;;;-4.40;92.70;;;;;;5039365;28;20227;-66
2023/02/09 03:21:57;;;;;;;1.17;1.17;;;-4.30;92.30;;;;;;5049752;28;20866;-66
2023/02/09 03:24:34;;;;;;;2.47;2.28;;;-4.20;92.10;;;;;;5049388;28;20266;-67
2023/02/09 03:27:09;;;;;;;1.33;1.25;;;-4.20;91.90;;;;;;5047779;28;20243;-66
2023/02/09 03:29:38;;;;;;;1.35;1.35;;;-4.30;92.20;;;;;;5030989;28;20199;-66
2023/02/09 03:32:06;;;;;;;3.30;3.00;;;-4.30;92.50;;;;;;5029593;28;20902;-67
2023/02/09 03:34:33;;;;;;;1.25;1.25;;;-4.30;92.40;;;;;;5029732;28;20199;-67
2023/02/09 03:37:02;;;;;;;1.90;1.80;;;-4.40;92.10;;;;;;5032030;28;20738;-67
2023/02/09 03:39:30;;;;;;;1.60;1.50;;;-4.30;92.00;;;;;;5040957;28;20579;-66
2023/02/09 03:41:57;;;;;;;0.77;0.77;;;-4.30;91.80;;;;;;5048714;28;20233;-66
2023/02/09 03:44:27;;;;;;;1.50;1.50;;;-4.30;91.80;;;;;;5045784;28;20634;-67
2023/02/09 03:46:56;;;;;;;1.65;1.55;;;-4.40;92.20;;;;;;5029193;28;20324;-66
2023/02/09 03:49:26;;;;;;;2.20;1.70;;;-4.40;92.30;;;;;;5045945;28;20235;-67
2023/02/09 03:51:53;;;;;;;4.43;2.67;;;-4.40;92.70;;;;;;5047898;28;20223;-66
2023/02/09 03:54:22;;;;;;;1.60;1.60;;;-4.50;92.90;;;;;;5049309;28;20803;-66
2023/02/09 03:56:50;;;;;;;2.47;1.63;;;-4.40;92.70;;;;;;5043620;28;20224;-67
2023/02/09 03:59:19;;;;;;;1.27;1.27;;;-4.40;92.40;;;;;;5028145;28;20773;-66
2023/02/09 04:01:47;;;;;;;4.53;2.85;;;-4.40;92.20;;;;;;5028914;28;20286;-67
2023/02/09 04:04:15;;;;;;;3.35;2.90;;;-4.40;92.10;;;;;;5029047;28;20263;-68
2023/02/09 04:06:42;;;;;;;1.35;1.30;;;-4.30;92.40;;;;;;5031632;28;20219;-66
2023/02/09 04:09:10;;;;;;;0.52;0.52;;;-4.20;92.70;;;;;;5047543;28;20192;-67
2023/02/09 04:11:38;;;;;;;1.60;1.50;;;-4.30;92.70;;;;;;5034190;28;20228;-66
2023/02/09 04:14:07;;;;;;;2.90;2.15;;;-4.30;92.80;;;;;;5028540;28;20251;-66
2023/02/09 04:16:35;;;;;;;2.95;2.72;;;-4.20;92.90;;;;;;5030355;28;20232;-67
2023/02/09 04:19:02;;;;;;;1.35;1.25;;;-4.30;92.80;;;;;;5030207;28;20252;-67
2023/02/09 04:21:29;;;;;;;2.05;1.35;;;-4.30;92.80;;;;;;5028635;28;20274;-66
2023/02/09 04:23:56;;;;;;;2.25;1.98;;;-4.30;92.60;;;;;;5028670;28;20197;-67
2023/02/09 04:26:23;;;;;;;1.00;1.00;;;-4.30;92.40;;;;;;5028654;28;20327;-66
2023/02/09 04:28:51;;;;;;;3.88;3.08;;;-4.30;92.10;;;;;;5043422;28;20761;-66
2023/02/09 04:31:18;;;;;;;5.45;4.20;;;-4.30;92.10;;;;;;5048182;28;20315;-66
2023/02/09 04:33:45;;;;;;;2.00;1.77;;;-4.30;92.10;;;;;;5047431;28;20200;-66
2023/02/09 04:36:12;;;;;;;1.38;1.38;;;-4.20;92.30;;;;;;5028500;28;20237;-66
2023/02/09 04:38:39;;;;;;;2.55;2.45;;;-4.20;92.20;;;;;;5042870;28;20334;-66
2023/02/09 04:41:06;;;;;;;2.47;2.03;;;-4.20;92.10;;;;;;5044638;28;20224;-66
2023/02/09 04:43:33;;;;;;;0.95;0.95;;;-4.20;92.10;;;;;;5035407;28;20225;-66
2023/02/09 04:46:01;;;;;;;1.80;1.70;;;-4.20;92.10;;;;;;5028312;28;20228;-67
2023/02/09 04:48:29;;;;;;;4.05;3.72;;;-4.20;92.30;;;;;;5026885;28;20199;-66
2023/02/09 04:50:56;;;;;;;2.40;2.25;;;-4.20;92.20;;;;;;5028140;28;20247;-66
2023/02/09 04:53:23;;;;;;;2.15;2.05;;;-4.20;92.30;;;;;;5027771;28;20211;-66
2023/02/09 04:55:51;;;;;;;1.45;1.45;;;-4.40;92.50;;;;;;5028145;28;20224;-66
2023/02/09 05:01:06;;;;;;;2.47;2.30;;;-4.70;93.50;;;;;;5027437;28;20229;-66
2023/02/09 05:03:33;;;;;;;8.23;3.03;;;-4.90;93.90;;;;;;5027852;28;20204;-67
2023/02/09 05:06:03;;;;;;;3.00;2.72;;;-4.90;94.50;;;;;;5027734;28;20232;-68
2023/02/09 05:08:31;;;;;;;0.95;0.95;;;-4.80;94.90;;;;;;5034435;28;20201;-66
2023/02/09 05:10:58;;;;;;;0.85;0.85;;;-4.70;94.50;;;;;;5047773;28;20667;-67
2023/02/09 05:13:26;;;;;;;2.78;2.60;;;-4.50;93.90;;;;;;5035494;28;20204;-66
2023/02/09 05:15:53;;;;;;;3.42;2.80;;;-4.50;93.60;;;;;;5027353;28;20230;-66
2023/02/09 05:18:21;;;;;;;3.58;3.00;;;-4.60;93.60;;;;;;5032726;28;20194;-68
2023/02/09 05:20:49;;;;;;;3.47;2.80;;;-4.60;94.10;;;;;;5032516;28;20235;-67
2023/02/09 05:23:16;;;;;;;0.95;0.95;;;-4.60;93.80;;;;;;5029366;28;20205;-66
2023/02/09 05:25:44;;;;;;;3.10;2.90;;;-4.60;95.10;;;;;;5046259;28;20228;-67
2023/02/09 05:28:12;;;;;;;2.60;2.40;;;-4.60;93.40;;;;;;5046007;28;20230;-66
2023/02/09 05:30:38;;;;;;;3.25;2.55;;;-4.50;93.30;;;;;;5047196;28;20236;-66
2023/02/09 05:33:05;;;;;;;2.90;2.78;;;-4.50;93.50;;;;;;5047624;28;20548;-66
2023/02/09 05:35:33;;;;;;;2.50;2.30;;;-4.40;93.60;;;;;;5046042;28;20228;-66
2023/02/09 05:38:00;;;;;;;2.17;1.55;;;-4.40;93.40;;;;;;5055025;28;20207;-67
2023/02/09 05:40:27;;;;;;;7.25;2.58;;;-4.40;93.50;;;;;;5052580;28;20232;-66
2023/02/09 05:42:54;;;;;;;1.08;1.08;;;-4.50;93.50;;;;;;5045482;28;20642;-66
2023/02/09 05:45:22;;;;;;;1.23;1.23;;;-4.60;93.60;;;;;;5046935;28;20207;-66
2023/02/09 05:47:48;;;;;;;2.22;2.13;;;-4.70;93.80;;;;;;5046941;28;20291;-67
2023/02/09 05:50:15;;;;;;;1.23;1.13;;;-4.80;94.00;;;;;;5045019;28;20215;-66
2023/02/09 05:52:43;;;;;;;1.00;1.00;;;-4.70;94.10;;;;;;5045697;28;20204;-68
2023/02/09 05:55:10;;;;;;;6.22;2.90;;;-4.70;94.10;;;;;;5046049;28;20745;-66
2023/02/09 05:57:37;;;;;;;3.22;2.95;;;-4.60;93.90;;;;;;5039258;28;20312;-67
2023/02/09 06:00:05;;;;;;;1.67;1.48;;;-4.60;93.90;;;;;;5025914;28;20515;-66
2023/02/09 06:02:32;;;;;;;1.75;1.63;;;-4.70;93.90;;;;;;5026475;28;20208;-66
2023/02/09 06:04:59;;;;;;;4.00;3.20;;;-4.60;93.80;;;;;;5027465;28;20203;-66
2023/02/09 06:07:25;;;;;;;3.70;2.15;;;-4.70;93.70;;;;;;5044842;28;20231;-67
2023/02/09 06:09:53;;;;;;;4.72;3.72;;;-4.70;93.60;;;;;;5034767;28;20677;-66
2023/02/09 06:12:20;;;;;;;2.72;2.55;;;-4.80;93.50;;;;;;5029816;28;20241;-69
2023/02/09 06:14:47;;;;;;;2.17;2.05;;;-4.70;93.50;;;;;;5037490;28;20629;-68
2023/02/09 06:17:15;;;;;;;1.50;1.35;;;-4.80;93.40;;;;;;5039754;28;20302;-66
2023/02/09 06:19:41;;;;;;;1.90;1.80;;;-4.80;93.30;;;;;;5034827;28;20311;-67
2023/02/09 06:22:08;;;;;;;3.58;3.25;;;-4.80;93.30;;;;;;5040068;28;20216;-67
2023/02/09 06:24:35;;;;;;;3.13;1.90;;;-4.80;93.40;;;;;;5041483;28;20655;-65
2023/02/09 06:27:03;;;;;;;2.55;2.35;;;-4.90;93.40;;;;;;5030941;28;20714;-66
2023/02/09 06:29:31;;;;;;;2.58;2.15;;;-4.80;93.50;;;;;;5042904;28;20211;-66
2023/02/09 06:31:57;;;;;;;2.75;2.53;;;-4.80;93.30;;;;;;5044823;28;20245;-67
2023/02/09 06:34:24;;;;;;;2.33;2.13;;;-4.80;93.30;;;;;;5025539;28;20208;-66
2023/02/09 06:36:51;;;;;;;2.40;2.30;;;-4.90;93.40;;;;;;5027379;28;20232;-68
2023/02/09 06:39:18;;;;;;;9.07;3.38;;;-5.00;93.60;;;;;;5049868;28;20226;-67
2023/02/09 06:41:45;;;;;;;3.55;3.35;;;-5.00;93.80;;;;;;5039358;28;20633;-66
2023/02/09 06:44:13;;;;;;;1.55;1.50;;;-5.00;93.90;;;;;;5039460;28;20196;-66
2023/02/09 06:46:40;;;;;;;4.35;4.05;;;-5.10;94.00;;;;;;5042645;28;20224;-66
2023/02/09 06:49:06;;;;;;;1.80;1.75;;;-5.00;94.10;;;;;;5030175;28;20687;-67
2023/02/09 06:51:33;;;;;;;4.38;2.25;;;-4.90;93.90;;;;;;5038100;28;20251;-68
2023/02/09 06:54:00;;;;;;;2.85;2.63;;;-4.80;93.90;;;;;;5043531;28;20223;-67
2023/02/09 06:56:27;;;;;;;1.15;1.15;;;-4.80;93.90;;;;;;5039334;28;20228;-67
2023/02/09 06:58:54;;;;;;;1.55;1.45;;;-4.70;94.10;;;;;;5042891;28;20196;-68
2023/02/09 07:01:22;;;;;;;4.43;4.13;;;-4.80;95.20;;;;;;5036870;28;20208;-67
2023/02/09 07:03:49;;;;;;;2.53;2.33;;;-4.70;94.00;;;;;;5049181;28;20204;-67
2023/02/09 07:06:18;;;;;;;1.33;1.33;;;-4.60;94.00;;;;;;5031414;28;20758;-67
2023/02/09 07:08:45;;;;;;;2.45;2.25;;;-4.60;93.80;;;;;;5042346;28;20204;-67
2023/02/09 07:11:15;;;;;;;1.67;1.58;;;-4.50;93.90;;;;;;5049198;28;21000;-68
2023/02/09 07:13:42;;;;;;;2.40;2.30;;;-4.50;93.80;;;;;;5029817;28;20686;-67
2023/02/09 07:16:10;;;;;;;3.53;2.85;;;-4.40;94.00;;;;;;5032495;28;20300;-67
2023/02/09 07:18:39;;;;;;;1.48;1.38;;;-4.60;93.80;;;;;;5041246;28;20588;-66
2023/02/09 07:21:07;;;;;;;1.75;1.65;;;-4.60;94.20;;;;;;5048014;28;20235;-66
2023/02/09 07:23:35;;;;;;;0.75;0.75;;;-4.40;94.40;;;;;;5039694;28;20560;-66
2023/02/09 07:26:03;;;;;;;2.20;2.13;;;-4.40;94.30;;;;;;5048172;28;20235;-67
2023/02/09 07:28:30;;;;;;;1.58;1.48;;;-4.40;94.30;;;;;;5047205;28;20204;-66
2023/02/09 07:31:03;;;;;;;2.90;2.80;;;-4.20;94.40;;;;;;5037061;28;20221;-67
2023/02/09 07:33:30;;;;;;;1.35;1.25;;;-4.20;94.60;;;;;;5040173;28;20204;-66
2023/02/09 07:35:58;;;;;;;2.35;2.10;;;-4.20;94.20;;;;;;5043950;28;20236;-66
2023/02/09 07:38:25;;;;;;;1.10;1.10;;;-4.10;94.20;;;;;;5044129;28;20208;-68
2023/02/09 07:40:52;;;;;;;2.40;1.90;;;-4.00;94.20;;;;;;5049908;28;20311;-67
2023/02/09 07:43:19;;;;;;;6.15;3.05;;;-4.00;94.60;;;;;;5041453;28;20204;-67
2023/02/09 07:45:45;;;;;;;11.98;4.35;;;-3.90;94.40;;;;;;5041220;28;20230;-67
2023/02/09 07:48:12;;;;;;;1.73;1.63;;;-3.90;94.40;;;;;;5041312;28;20212;-67
2023/02/09 07:50:39;;;;;;;3.53;3.33;;;-3.80;94.50;;;;;;5048455;28;20224;-66
2023/02/09 07:53:07;;;;;;;4.18;2.40;;;-3.70;94.50;;;;;;5033866;28;20204;-67
2023/02/09 07:55:34;;;;;;;5.60;2.40;;;-3.60;94.80;;;;;;5037902;28;20221;-67
2023/02/09 07:58:01;;;;;;;6.95;6.63;;;-3.50;94.50;;;;;;5042687;28;20196;-67
2023/02/09 08:00:27;;;;;;;5.18;3.22;;;-3.40;94.30;;;;;;5042135;28;20244;-66
2023/02/09 08:02:55;;;;;;;9.10;3.40;;;-3.30;94.30;;;;;;5036498;28;20283;-67
2023/02/09 08:05:28;;;;;;;5.22;4.78;;;-3.30;94.30;;;;;;5042739;28;20998;-66
2023/02/09 08:07:55;;;;;;;4.75;3.70;;;-3.30;94.30;;;;;;5047857;28;20549;-68
2023/02/09 08:10:24;;;;;;;6.63;3.95;;;-3.10;94.60;;;;;;5036219;28;20226;-67
2023/02/09 08:13:01;;;;;;;5.30;4.82;;;-3.00;94.50;;;;;;5048066;28;20291;-67
2023/02/09 08:15:34;;;;;;;6.78;2.00;;;-2.90;94.40;;;;;;5048815;28;20587;-67
2023/02/09 08:18:04;;;;;;;3.47;2.78;;;-2.80;94.50;;;;;;5041595;28;20220;-67
2023/02/09 08:20:32;;;;;;;2.67;2.53;;;-2.70;94.00;;;;;;5032453;28;20341;-67
2023/02/09 08:23:05;;;;;;;3.03;2.78;;;-2.60;93.80;;;;;;5035474;28;20201;-68
2023/02/09 08:25:34;;;;;;;1.92;1.83;;;-2.50;93.80;;;;;;5030940;28;20231;-67
2023/02/09 08:28:02;;;;;;;1.67;1.60;;;-2.50;93.80;;;;;;5027424;28;20401;-67
2023/02/09 08:30:29;;;;;;;2.83;2.72;;;-2.40;93.70;;;;;;5027791;28;20234;-67
2023/02/09 08:32:56;;;;;;;4.57;3.28;;;-2.30;93.60;;;;;;5036602;28;20203;-67
2023/02/09 08:35:23;;;;;;;5.22;3.28;;;-2.30;93.50;;;;;;5037987;28;20214;-67
2023/02/09 08:37:49;;;;;;;2.72;2.38;;;-2.20;93.30;;;;;;5046447;28;20208;-67
2023/02/09 08:40:16;;;;;;;2.88;2.60;;;-2.10;93.30;;;;;;5051623;28;20249;-67
2023/02/09 08:42:44;;;;;;;1.90;1.80;;;-1.90;93.20;;;;;;5045811;28;20205;-67
2023/02/09 08:45:11;;;;;;;2.88;2.67;;;-1.90;93.10;;;;;;5047217;28;20208;-67
2023/02/09 08:47:38;;;;;;;3.55;3.08;;;-1.90;93.00;;;;;;5045405;28;20213;-68
2023/02/09 08:50:06;;;;;;;4.72;4.28;;;-1.90;93.10;;;;;;5036989;28;20199;-67
2023/02/09 08:52:32;;;;;;;1.45;1.35;;;-1.80;93.10;;;;;;5037227;28;20199;-67
2023/02/09 08:54:59;;;;;;;6.97;2.40;;;-1.70;92.80;;;;;;5039986;28;20201;-67
2023/02/09 08:57:26;;;;;;;4.43;4.05;;;-1.60;92.80;;;;;;5043199;28;20374;-67
2023/02/09 08:59:54;;;;;;;4.05;3.70;;;-1.50;92.60;;;;;;5033773;28;20225;-67
2023/02/09 09:02:21;;;;;;;2.35;1.88;;;-1.50;92.50;;;;;;5032899;28;20228;-66
2023/02/09 09:04:48;;;;;;;2.80;2.70;;;-1.40;92.30;;;;;;5029300;28;20204;-67
2023/02/09 09:07:15;;;;;;;2.72;2.63;;;-1.30;92.30;;;;;;5027130;28;20232;-67
2023/02/09 09:09:41;;;;;;;3.35;3.08;;;-1.30;93.80;;;;;;5026721;28;20299;-66
2023/02/09 09:12:08;;;;;;;4.40;3.30;;;-1.10;91.90;;;;;;5031865;28;20231;-68
2023/02/09 09:14:35;;;;;;;1.30;1.20;;;-0.90;91.90;;;;;;5037976;28;20218;-67
2023/02/09 09:17:04;;;;;;;6.25;3.38;;;-1.00;91.70;;;;;;5027938;28;20856;-65
2023/02/09 09:19:30;;;;;;;5.28;2.83;;;-0.90;91.80;;;;;;5030226;28;20300;-68
2023/02/09 09:21:59;;;;;;;4.15;3.72;;;-0.90;91.40;;;;;;5044038;28;20702;-69
2023/02/09 09:24:27;;;;;;;3.15;2.85;;;-0.80;91.50;;;;;;5027370;28;20210;-68
2023/02/09 09:26:54;;;;;;;2.33;2.22;;;-0.80;91.40;;;;;;5044443;28;20231;-67
2023/02/09 09:29:21;;;;;;;9.57;4.35;;;-0.70;91.40;;;;;;5038750;28;20197;-68
2023/02/09 09:31:48;;;;;;;1.85;1.73;;;-0.60;91.20;;;;;;5036012;28;21103;-66
2023/02/09 09:34:16;;;;;;;3.38;3.17;;;-0.60;91.20;;;;;;5047162;28;20200;-67
2023/02/09 09:36:43;;;;;;;7.90;5.45;;;-0.50;91.60;;;;;;5046806;28;20228;-67
2023/02/09 09:39:10;;;;;;;2.30;2.15;;;-0.40;90.80;;;;;;5043552;28;20195;-66
2023/02/09 09:41:37;;;;;;;8.73;3.88;;;-0.50;90.80;;;;;;5030909;28;20231;-67
2023/02/09 09:44:12;;;;;;;6.63;4.22;;;-0.40;91.10;;;;;;5046155;28;20230;-67
2023/02/09 09:46:43;;;;;;;1.85;1.75;;;-0.30;90.90;;;;;;5046744;28;20233;-68
2023/02/09 09:49:22;;;;;;;5.00;4.32;;;-0.30;90.70;;;;;;5045056;28;20204;-66
2023/02/09 09:51:53;;;;;;;7.22;5.95;;;-0.20;90.60;;;;;;5040425;28;20520;-67
2023/02/09 09:54:24;;;;;;;9.43;5.68;;;-0.20;90.80;;;;;;5026630;28;20227;-68
2023/02/09 09:56:53;;;;;;;2.33;2.13;;;-0.20;90.50;;;;;;5039469;28;20224;-66
2023/02/09 09:59:23;;;;;;;6.32;3.50;;;-0.10;90.60;;;;;;5028683;28;20200;-67
2023/02/09 10:01:52;;;;;;;2.63;2.45;;;-0.10;90.70;;;;;;5026187;28;20229;-68
2023/02/09 10:04:20;;;;;;;5.00;3.30;;;0.00;90.40;;;;;;5035117;28;20279;-67
2023/02/09 10:06:51;;;;;;;3.72;3.15;;;0.10;90.10;;;;;;5030686;28;20231;-68
2023/02/09 10:09:34;;;;;;;4.53;2.80;;;0.10;90.20;;;;;;5044933;28;20240;-67
2023/02/09 10:12:14;;;;;;;5.00;3.75;;;0.00;90.30;;;;;;5029001;28;20317;-67
2023/02/09 10:14:41;;;;;;;7.88;4.30;;;0.00;90.50;;;;;;5030610;28;20296;-67
2023/02/09 10:17:08;;;;;;;3.83;2.90;;;0.00;90.20;;;;;;5042379;28;20234;-67
2023/02/09 10:19:36;;;;;;;4.85;4.00;;;-0.10;90.20;;;;;;5030007;28;20654;-68
2023/02/09 10:22:04;;;;;;;2.97;2.78;;;0.10;90.40;;;;;;5031030;28;20228;-68
2023/02/09 10:24:33;;;;;;;4.15;2.42;;;0.20;90.50;;;;;;5036206;28;20580;-68
2023/02/09 10:27:07;;;;;;;3.72;3.38;;;0.20;90.80;;;;;;5041857;28;20232;-68
2023/02/09 10:29:35;;;;;;;4.70;2.88;;;0.40;90.10;;;;;;5047381;28;20572;-67
2023/02/09 10:32:11;;;;;;;3.42;2.17;;;0.40;90.00;;;;;;5031939;28;20317;-68
2023/02/09 10:34:45;;;;;;;3.83;3.50;;;0.40;90.00;;;;;;5045935;28;20206;-68
2023/02/09 10:37:20;;;;;;;3.80;3.30;;;0.50;89.30;;;;;;5045691;28;20253;-67
2023/02/09 10:39:54;;;;;;;5.38;4.15;;;0.50;89.10;;;;;;5052190;28;20195;-68
2023/02/09 10:42:25;;;;;;;3.40;3.15;;;0.60;89.50;;;;;;5045673;28;20598;-67
2023/02/09 10:44:54;;;;;;;5.43;3.47;;;0.60;88.40;;;;;;5050923;28;20294;-68
2023/02/09 10:47:28;;;;;;;3.50;2.13;;;0.70;88.00;;;;;;5039478;28;20224;-68
2023/02/09 10:50:01;;;;;;;9.35;2.83;;;0.70;88.50;;;;;;5048728;28;20207;-67
2023/02/09 10:52:32;;;;;;;3.72;3.42;;;0.70;88.60;;;;;;5032620;28;20213;-68
2023/02/09 10:55:03;;;;;;;4.40;2.33;;;0.80;87.20;;;;;;5046083;28;20193;-67
2023/02/09 10:57:34;;;;;;;2.63;1.95;;;1.00;85.60;;;;;;5046923;28;20865;-68
2023/02/09 11:00:19;;;;;;;3.25;3.05;;;1.00;85.20;;;;;;5029437;28;20200;-67
2023/02/09 11:02:51;;;;;;;5.20;3.60;;;1.00;84.60;;;;;;5032565;28;20208;-68
2023/02/09 11:05:32;;;;;;;2.50;2.33;;;1.00;84.70;;;;;;5031838;28;20197;-69
2023/02/09 11:08:09;;;;;;;4.47;4.00;;;1.10;85.60;;;;;;5043677;28;20222;-67
2023/02/09 11:10:42;;;;;;;3.58;2.25;;;1.10;86.10;;;;;;5041258;28;20699;-67
2023/02/09 11:13:20;;;;;;;3.13;2.78;;;1.10;85.20;;;;;;5049776;28;20575;-68
2023/02/09 11:16:18;;;;;;;7.97;3.47;;;1.20;88.30;;;;;;5028601;28;20235;-68
2023/02/09 11:18:51;;;;;;;3.75;3.30;;;1.10;85.00;;;;;;5029362;28;20686;-66
2023/02/09 11:21:30;;;;;;;2.42;2.17;;;1.20;85.70;;;;;;5049386;28;20247;-67
2023/02/09 11:24:02;;;;;;;4.03;3.72;;;1.20;85.70;;;;;;5043018;28;20203;-68
2023/02/09 11:26:42;;;;;;;5.65;2.60;;;1.30;85.10;;;;;;5049312;28;20239;-67
2023/02/09 11:29:15;;;;;;;5.68;3.05;;;1.30;84.90;;;;;;5048145;28;20570;-67
2023/02/09 11:32:06;;;;;;;3.90;2.65;;;1.40;84.60;;;;;;5048899;28;20235;-67
2023/02/09 11:35:01;;;;;;;7.18;4.25;;;1.40;85.10;;;;;;5048132;28;20199;-67
2023/02/09 11:37:39;;;;;;;3.58;2.67;;;1.50;85.00;;;;;;5040343;28;20359;-67
2023/02/09 11:40:19;;;;;;;2.88;2.42;;;1.50;85.20;;;;;;5059046;28;20205;-67
2023/02/09 11:42:50;;;;;;;5.50;4.50;;;1.60;84.70;;;;;;5050278;28;20207;-68
2023/02/09 11:45:23;;;;;;;3.30;2.40;;;1.50;84.00;;;;;;5048346;28;20207;-68
2023/02/09 11:47:58;;;;;;;1.52;1.45;;;1.60;83.90;;;;;;5032104;28;20215;-68
2023/02/09 11:50:30;;;;;;;4.07;3.67;;;1.70;83.70;;;;;;5047024;28;20211;-68
2023/02/09 11:53:01;;;;;;;4.03;3.72;;;1.70;82.60;;;;;;5032743;28;20235;-68
2023/02/09 11:55:33;;;;;;;3.10;2.90;;;1.80;83.10;;;;;;5030310;28;20241;-68
2023/02/09 11:58:11;;;;;;;8.50;4.25;;;1.80;82.80;;;;;;5046295;28;20203;-68
2023/02/09 12:00:45;;;;;;;4.97;4.47;;;1.80;82.80;;;;;;5036174;28;20266;-68
2023/02/09 12:03:14;;;;;;;5.47;3.45;;;1.90;82.70;;;;;;5047969;28;20612;-68
2023/02/09 12:05:43;;;;;;;4.10;2.72;;;2.00;83.30;;;;;;5047575;28;20228;-68
2023/02/09 12:08:33;;;;;;;4.95;4.22;;;2.00;81.30;;;;;;5047909;28;20214;-67
2023/02/09 12:11:17;;;;;;;2.90;2.03;;;2.00;82.00;;;;;;5045494;28;20224;-67
2023/02/09 12:13:58;;;;;;;2.92;2.70;;;2.10;82.60;;;;;;5037636;28;20466;-68
2023/02/09 12:16:29;;;;;;;2.13;1.77;;;2.10;82.00;;;;;;5030786;28;20228;-68
2023/02/09 12:18:56;;;;;;;2.58;2.42;;;2.20;82.20;;;;;;5038379;28;20196;-68
2023/02/09 12:21:31;;;;;;;4.53;2.92;;;2.20;81.60;;;;;;5047723;28;20322;-68
2023/02/09 12:23:59;;;;;;;7.90;3.72;;;2.30;81.20;;;;;;5048035;28;20206;-68
2023/02/09 12:26:41;;;;;;;5.22;2.50;;;2.30;81.00;;;;;;5046688;28;20224;-68
2023/02/09 12:29:24;;;;;;;3.47;3.20;;;2.40;80.30;;;;;;5035473;28;20196;-67
2023/02/09 12:32:24;;;;;;;1.92;1.65;;;2.40;80.00;;;;;;5027825;28;20278;-67
2023/02/09 12:34:55;;;;;;;6.20;2.88;;;2.10;79.90;;;;;;5045337;28;20666;-68
2023/02/09 12:37:25;;;;;;;5.20;3.42;;;2.40;79.90;;;;;;5041765;28;20233;-68
2023/02/09 12:40:28;;;;;;;3.95;2.92;;;2.40;79.80;;;;;;5037041;28;20238;-67
2023/02/09 12:43:30;;;;;;;4.93;3.88;;;2.40;79.50;;;;;;5043374;28;20653;-67
2023/02/09 12:46:25;;;;;;;4.20;3.58;;;2.40;79.00;;;;;;5047009;28;20596;-68
2023/02/09 12:49:02;;;;;;;3.75;3.40;;;2.50;79.10;;;;;;5030962;28;20215;-68
2023/02/09 12:52:16;;;;;;;3.85;2.78;;;2.60;79.60;;;;;;5036429;28;20239;-68
2023/02/09 12:54:49;;;;;;;1.73;1.63;;;2.70;79.50;;;;;;5017143;28;20291;-68
2023/02/09 12:57:48;;;;;;;2.50;2.30;;;2.70;78.80;;;;;;5037612;28;20231;-68
2023/02/09 13:00:50;;;;;;;5.35;2.60;;;2.70;78.60;;;;;;5038390;28;20204;-68
2023/02/09 13:03:20;;;;;;;3.83;3.53;;;2.70;78.60;;;;;;5035473;28;20283;-68
2023/02/09 13:05:48;;;;;;;9.73;4.10;;;2.70;78.90;;;;;;5027216;28;20220;-68
2023/02/09 13:08:47;;;;;;;4.25;3.60;;;2.90;78.60;;;;;;5031844;28;20203;-68
2023/02/09 13:11:28;;;;;;;3.70;3.33;;;2.80;78.10;;;;;;5018796;28;20664;-68